Tsurugi — JD2656 — position and weather

sailwx.info

Track history (hours):
 
Tides and Currents Weather Stations Pressure Air Temp Water Temp Dewpoint Dewpoint Depression Visibility Wind Speed Wind Dir Waves Ship Positions

Tsurugi

Last reported at 2018-Jun-20 17:34 UTC. Time now 2018-Jun-24 05:21 UTC.
Position N 34°31' E 134°41'.

Length 38 m; draft 3.8 m.

Type: Tug. MMSI: 431000584.

Date/timePositionNaut miles runAvg speedWind from/ knotsBaromVisibWave heightAir tempDewpointWater temp
2018-Jun-20 17:34N 34°31' E 134°41'1 4.4
2018-Jun-20 17:25N 34°32' E 134°42'6 5.3
2018-Jun-20 16:16N 34°34' E 134°48'2 6.1
2018-Jun-20 15:59N 34°35' E 134°50'6 6.1
2018-Jun-20 14:57N 34°37' E 134°57'1 2.6
2018-Jun-20 14:29N 34°38' E 134°59'3 3.6
2018-Jun-20 13:47N 34°37' E 135°02'1 2.7
2018-Jun-20 13:28N 34°37' E 135°02'1 1.8
2018-Jun-20 12:58N 34°36' E 135°03'0 0.8
2018-Jun-20 12:30N 34°36' E 135°04'0 0.8
2018-Jun-20 11:54N 34°36' E 135°04'0 0.9
2018-Jun-20 11:30N 34°36' E 135°05'0 0.8
2018-Jun-20 11:00N 34°36' E 135°05'1 1.0
2018-Jun-20 10:29N 34°36' E 135°06'1 1.6
2018-Jun-20 10:00N 34°36' E 135°07'1 1.5
2018-Jun-20 09:30N 34°36' E 135°08'1 1.7
2018-Jun-20 09:00N 34°36' E 135°09'1 2.4
2018-Jun-20 08:30N 34°36' E 135°10'1 2.7
2018-Jun-20 08:00N 34°36' E 135°12'1 2.6
2018-Jun-20 07:30N 34°36' E 135°13'1 2.5
2018-Jun-20 07:00N 34°36' E 135°15'1 2.5
2018-Jun-20 06:29N 34°36' E 135°17'1 2.2
2018-Jun-20 06:00N 34°35' E 135°18'1 2.0
2018-Jun-20 05:29N 34°35' E 135°19'1 1.9
2018-Jun-20 05:00N 34°36' E 135°20'1 1.3
2018-Jun-20 04:29N 34°36' E 135°21'1 1.3
2018-Jun-20 03:59N 34°36' E 135°21'1 3.0
2018-Jun-20 03:30N 34°37' E 135°23'2 2.6
2018-Jun-20 02:50N 34°36' E 135°25'2 3.3
2018-Jun-20 02:21N 34°35' E 135°27'0 0.1
2018-Jun-20 01:54N 34°35' E 135°27'0 0.0
2018-Jun-20 01:30N 34°35' E 135°27'0 0.0
2018-Jun-20 00:59N 34°35' E 135°27'0 0.1
2018-Jun-20 00:29N 34°35' E 135°27'0 0.4
2018-Jun-19 23:46N 34°35' E 135°27'0 0.0
2018-Jun-19 22:53N 34°35' E 135°27'0 0.0
2018-Jun-19 22:23N 34°35' E 135°27'1 0.0
2018-Jun-19 02:31N 34°35' E 135°26'011.8
2018-Jun-19 02:29N 34°35' E 135°26'2 0.1
2018-Jun-17 09:19N 34°33' E 135°27'5 0.2
2018-Jun-16 09:41N 34°33' E 135°21'512.9
2018-Jun-16 09:18N 34°34' E 135°15'413.5
2018-Jun-16 08:59N 34°35' E 135°10'814.9
2018-Jun-16 08:28N 34°37' E 135°01'12 0.3
2018-Jun-14 17:36N 34°40' E 134°47'7 4.0
2018-Jun-14 15:55N 34°37' E 134°54'8 5.5
2018-Jun-14 14:32N 34°36' E 135°03'1 5.0
2018-Jun-14 14:25N 34°36' E 135°04'2 5.2
2018-Jun-14 14:00N 34°36' E 135°06'2 4.8
2018-Jun-14 13:30N 34°36' E 135°09'2 4.9
2018-Jun-14 13:00N 34°36' E 135°12'2 4.7
2018-Jun-14 12:30N 34°37' E 135°15'2 4.8
2018-Jun-14 12:00N 34°37' E 135°18'3 5.2
2018-Jun-14 11:26N 34°40' E 135°19'2 5.6
2018-Jun-14 11:00N 34°41' E 135°16'1 2.5
2018-Jun-14 10:30N 34°41' E 135°14'0 0.1
2018-Jun-14 10:00N 34°41' E 135°14'5 9.0
2018-Jun-14 09:30N 34°38' E 135°18'7 1.1
2018-Jun-14 03:07N 34°32' E 135°24'  
Track history (hours):
 
Tides and Currents Weather Stations Pressure Air Temp Water Temp Dewpoint Dewpoint Depression Visibility Wind Speed Wind Dir Waves Ship Positions

Tsurugi

Last reported at 2018-Jun-20 17:34 UTC. Time now 2018-Jun-24 05:21 UTC.
Position N 34°31' E 134°41'.

Length 38 m; draft 3.8 m.

Type: Tug. MMSI: 431000584.

Date/timePositionNaut miles runAvg speedWind from/ knotsBaromVisibWave heightAir tempDewpointWater temp
2018-Jun-20 17:34N 34°31' E 134°41'1 4.4
2018-Jun-20 17:25N 34°32' E 134°42'6 5.3
2018-Jun-20 16:16N 34°34' E 134°48'2 6.1
2018-Jun-20 15:59N 34°35' E 134°50'6 6.1
2018-Jun-20 14:57N 34°37' E 134°57'1 2.6
2018-Jun-20 14:29N 34°38' E 134°59'3 3.6
2018-Jun-20 13:47N 34°37' E 135°02'1 2.7
2018-Jun-20 13:28N 34°37' E 135°02'1 1.8
2018-Jun-20 12:58N 34°36' E 135°03'0 0.8
2018-Jun-20 12:30N 34°36' E 135°04'0 0.8
2018-Jun-20 11:54N 34°36' E 135°04'0 0.9
2018-Jun-20 11:30N 34°36' E 135°05'0 0.8
2018-Jun-20 11:00N 34°36' E 135°05'1 1.0
2018-Jun-20 10:29N 34°36' E 135°06'1 1.6
2018-Jun-20 10:00N 34°36' E 135°07'1 1.5
2018-Jun-20 09:30N 34°36' E 135°08'1 1.7
2018-Jun-20 09:00N 34°36' E 135°09'1 2.4
2018-Jun-20 08:30N 34°36' E 135°10'1 2.7
2018-Jun-20 08:00N 34°36' E 135°12'1 2.6
2018-Jun-20 07:30N 34°36' E 135°13'1 2.5
2018-Jun-20 07:00N 34°36' E 135°15'1 2.5
2018-Jun-20 06:29N 34°36' E 135°17'1 2.2
2018-Jun-20 06:00N 34°35' E 135°18'1 2.0
2018-Jun-20 05:29N 34°35' E 135°19'1 1.9
2018-Jun-20 05:00N 34°36' E 135°20'1 1.3
2018-Jun-20 04:29N 34°36' E 135°21'1 1.3
2018-Jun-20 03:59N 34°36' E 135°21'1 3.0
2018-Jun-20 03:30N 34°37' E 135°23'2 2.6
2018-Jun-20 02:50N 34°36' E 135°25'2 3.3
2018-Jun-20 02:21N 34°35' E 135°27'0 0.1
2018-Jun-20 01:54N 34°35' E 135°27'0 0.0
2018-Jun-20 01:30N 34°35' E 135°27'0 0.0
2018-Jun-20 00:59N 34°35' E 135°27'0 0.1
2018-Jun-20 00:29N 34°35' E 135°27'0 0.4
2018-Jun-19 23:46N 34°35' E 135°27'0 0.0
2018-Jun-19 22:53N 34°35' E 135°27'0 0.0
2018-Jun-19 22:23N 34°35' E 135°27'1 0.0
2018-Jun-19 02:31N 34°35' E 135°26'011.8
2018-Jun-19 02:29N 34°35' E 135°26'2 0.1
2018-Jun-17 09:19N 34°33' E 135°27'5 0.2
2018-Jun-16 09:41N 34°33' E 135°21'512.9
2018-Jun-16 09:18N 34°34' E 135°15'413.5
2018-Jun-16 08:59N 34°35' E 135°10'814.9
2018-Jun-16 08:28N 34°37' E 135°01'12 0.3
2018-Jun-14 17:36N 34°40' E 134°47'7 4.0
2018-Jun-14 15:55N 34°37' E 134°54'8 5.5
2018-Jun-14 14:32N 34°36' E 135°03'1 5.0
2018-Jun-14 14:25N 34°36' E 135°04'2 5.2
2018-Jun-14 14:00N 34°36' E 135°06'2 4.8
2018-Jun-14 13:30N 34°36' E 135°09'2 4.9
2018-Jun-14 13:00N 34°36' E 135°12'2 4.7
2018-Jun-14 12:30N 34°37' E 135°15'2 4.8
2018-Jun-14 12:00N 34°37' E 135°18'3 5.2
2018-Jun-14 11:26N 34°40' E 135°19'2 5.6
2018-Jun-14 11:00N 34°41' E 135°16'1 2.5
2018-Jun-14 10:30N 34°41' E 135°14'0 0.1
2018-Jun-14 10:00N 34°41' E 135°14'5 9.0
2018-Jun-14 09:30N 34°38' E 135°18'7 1.1
2018-Jun-14 03:07N 34°32' E 135°24'  

Dump ship's entire track history